Time;durP1;ratioP1;P1;durP2;ratioP2;P2;SDS_P1;SDS_P2;PMS_P1;PMS_P2;Temp;Humidity;BMP_temperature;BMP_pressure;BME280_temperature;BME280_humidity;BME280_pressure;Samples;Min_cycle;Max_cycle;Signal;HPM_P1;HPM_P2
2023/07/02 00:00:58;;;;;;;;;;;21.10;65.20;;;;;;5051058;28;19943;-54
2023/07/02 00:03:24;;;;;;;;;;;21.10;65.10;;;;;;5051554;28;20381;-55
2023/07/02 00:05:50;;;;;;;;;;;21.10;65.10;;;;;;5051666;28;19940;-54
2023/07/02 00:08:16;;;;;;;;;;;21.10;65.10;;;;;;5049443;28;19920;-54
2023/07/02 00:10:41;;;;;;;;;;;21.00;65.30;;;;;;5053644;28;19913;-54
2023/07/02 00:13:07;;;;;;;;;;;21.00;65.30;;;;;;5052972;28;19920;-54
2023/07/02 00:15:32;;;;;;;;;;;21.00;65.40;;;;;;5052445;28;20377;-54
2023/07/02 00:17:58;;;;;;;;;;;20.90;65.60;;;;;;5051914;28;19913;-54
2023/07/02 00:20:23;;;;;;;;;;;20.90;65.60;;;;;;5057540;28;19956;-54
2023/07/02 00:22:49;;;;;;;;;;;21.00;65.50;;;;;;5063821;28;20004;-54
2023/07/02 00:25:14;;;;;;;;;;;21.00;65.40;;;;;;5050959;28;19920;-54
2023/07/02 00:27:40;;;;;;;;;;;21.00;65.40;;;;;;5051134;28;19996;-54
2023/07/02 00:30:06;;;;;;;;;;;21.00;65.60;;;;;;5052358;28;19987;-53
2023/07/02 00:32:31;;;;;;;;;;;20.90;65.70;;;;;;5051474;28;19923;-54
2023/07/02 00:34:56;;;;;;;;;;;20.90;65.70;;;;;;5054614;28;19921;-54
2023/07/02 00:37:22;;;;;;;;;;;20.90;65.60;;;;;;5053534;28;20003;-54
2023/07/02 00:39:47;;;;;;;;;;;20.90;65.70;;;;;;5054758;28;19913;-54
2023/07/02 00:42:13;;;;;;;;;;;20.90;65.80;;;;;;5063315;28;19959;-54
2023/07/02 00:44:40;;;;;;;;;;;20.90;65.80;;;;;;5050676;28;19932;-53
2023/07/02 00:47:09;;;;;;;;;;;20.90;65.90;;;;;;5055734;28;19920;-54
2023/07/02 00:49:34;;;;;;;;;;;20.90;65.90;;;;;;5061201;28;19916;-54
2023/07/02 00:52:00;;;;;;;;;;;20.90;65.90;;;;;;5066069;28;19918;-53
2023/07/02 00:54:27;;;;;;;;;;;20.80;66.00;;;;;;5055019;28;20292;-54
2023/07/02 00:56:53;;;;;;;;;;;20.80;66.00;;;;;;5058328;28;19982;-54
2023/07/02 00:59:18;;;;;;;;;;;20.80;66.00;;;;;;5057340;28;19916;-54
2023/07/02 01:01:49;;;;;;;;;;;20.90;65.90;;;;;;5055269;28;19924;-53
2023/07/02 01:04:16;;;;;;;;;;;20.90;65.90;;;;;;5055888;28;19919;-54
2023/07/02 01:06:42;;;;;;;;;;;20.90;65.90;;;;;;5054525;28;20377;-54
2023/07/02 01:09:07;;;;;;;;;;;20.90;66.00;;;;;;5058374;28;19965;-54
2023/07/02 01:11:34;;;;;;;;;;;20.80;65.90;;;;;;5067868;28;19908;-54
2023/07/02 01:14:00;;;;;;;;;;;20.90;66.40;;;;;;5056052;28;19920;-53
2023/07/02 01:16:25;;;;;;;;;;;20.90;65.90;;;;;;5053186;28;19920;-54
2023/07/02 01:18:54;;;;;;;;;;;20.90;65.80;;;;;;5063541;28;19917;-54
2023/07/02 01:21:20;;;;;;;;;;;20.90;65.80;;;;;;5057673;28;19928;-53
2023/07/02 01:23:45;;;;;;;;;;;20.90;65.70;;;;;;5058839;28;20391;-54
2023/07/02 01:26:10;;;;;;;;;;;20.90;65.70;;;;;;5055493;28;20281;-54
2023/07/02 01:28:37;;;;;;;;;;;20.90;65.80;;;;;;5054023;28;19967;-54
2023/07/02 01:31:03;;;;;;;;;;;20.90;65.90;;;;;;5055548;28;19913;-54
2023/07/02 01:33:28;;;;;;;;;;;20.80;66.00;;;;;;5058826;28;20434;-53
2023/07/02 01:35:53;;;;;;;;;;;20.80;65.90;;;;;;5057596;28;19932;-54
2023/07/02 01:38:19;;;;;;;;;;;20.80;65.90;;;;;;5062865;28;19917;-54
2023/07/02 01:40:44;;;;;;;;;;;20.80;65.80;;;;;;5063887;28;20003;-54
2023/07/02 01:43:10;;;;;;;;;;;20.80;65.80;;;;;;5062570;28;19912;-53
2023/07/02 01:45:37;;;;;;;;;;;20.80;65.80;;;;;;5054237;28;19931;-54
2023/07/02 01:48:02;;;;;;;;;;;20.90;65.90;;;;;;5054589;28;19951;-54
2023/07/02 01:50:28;;;;;;;;;;;20.80;65.90;;;;;;5057089;28;19931;-54
2023/07/02 01:52:53;;;;;;;;;;;20.80;66.20;;;;;;5060858;28;19943;-53
2023/07/02 01:55:19;;;;;;;;;;;20.80;66.10;;;;;;5058037;28;20011;-54
2023/07/02 01:57:44;;;;;;;;;;;20.80;66.20;;;;;;5057249;28;19909;-54
2023/07/02 02:00:10;;;;;;;;;;;20.80;66.20;;;;;;5053252;28;19917;-54
2023/07/02 02:02:35;;;;;;;;;;;20.80;66.30;;;;;;5053381;28;19965;-52
2023/07/02 02:05:01;;;;;;;;;;;20.80;66.10;;;;;;5053356;28;19930;-53
2023/07/02 02:07:27;;;;;;;;;;;20.80;66.10;;;;;;5052660;28;19916;-53
2023/07/02 02:09:52;;;;;;;;;;;20.80;66.20;;;;;;5052863;28;20426;-53
2023/07/02 02:12:18;;;;;;;;;;;20.80;66.20;;;;;;5068231;28;20441;-53
2023/07/02 02:14:43;;;;;;;;;;;20.70;66.20;;;;;;5065985;28;20027;-53
2023/07/02 02:17:09;;;;;;;;;;;20.80;66.30;;;;;;5059709;28;20412;-53
2023/07/02 02:19:34;;;;;;;;;;;20.70;66.20;;;;;;5053251;28;20392;-54
2023/07/02 02:22:00;;;;;;;;;;;20.70;66.10;;;;;;5064185;28;19995;-53
2023/07/02 02:24:25;;;;;;;;;;;20.80;66.10;;;;;;5052741;28;19916;-53
2023/07/02 02:26:51;;;;;;;;;;;20.70;66.10;;;;;;5052961;28;19923;-54
2023/07/02 02:29:16;;;;;;;;;;;20.70;66.20;;;;;;5056089;28;20364;-53
2023/07/02 02:31:42;;;;;;;;;;;20.70;66.30;;;;;;5057013;28;20386;-54
2023/07/02 02:34:07;;;;;;;;;;;20.70;66.30;;;;;;5067228;28;19916;-53
2023/07/02 02:36:33;;;;;;;;;;;20.70;66.20;;;;;;5053827;28;19908;-53
2023/07/02 02:38:58;;;;;;;;;;;20.70;66.20;;;;;;5052502;28;19916;-53
2023/07/02 02:41:24;;;;;;;;;;;20.70;66.10;;;;;;5065071;28;19909;-53
2023/07/02 02:43:49;;;;;;;;;;;20.70;65.90;;;;;;5062528;28;20265;-54
2023/07/02 02:46:19;;;;;;;;;;;20.70;66.00;;;;;;5064513;28;20072;-53
2023/07/02 02:48:44;;;;;;;;;;;20.60;66.10;;;;;;5053027;28;19966;-54
2023/07/02 02:51:10;;;;;;;;;;;20.60;66.20;;;;;;5061803;28;19916;-53
2023/07/02 02:53:35;;;;;;;;;;;20.60;66.10;;;;;;5054098;28;19924;-53
2023/07/02 02:56:01;;;;;;;;;;;20.70;66.00;;;;;;5052881;28;19939;-53
2023/07/02 02:58:27;;;;;;;;;;;20.60;66.00;;;;;;5052629;28;19916;-53
2023/07/02 03:00:53;;;;;;;;;;;20.70;66.00;;;;;;5052696;28;20356;-53
2023/07/02 03:03:20;;;;;;;;;;;20.60;66.10;;;;;;5062395;28;20019;-53
2023/07/02 03:05:48;;;;;;;;;;;20.60;66.20;;;;;;5055803;28;19912;-52
2023/07/02 03:08:13;;;;;;;;;;;20.50;66.40;;;;;;5051200;28;19913;-53
2023/07/02 03:10:39;;;;;;;;;;;20.50;66.30;;;;;;5054139;28;19961;-53
2023/07/02 03:13:04;;;;;;;;;;;20.40;66.30;;;;;;5054568;28;19913;-53
2023/07/02 03:15:30;;;;;;;;;;;20.50;66.20;;;;;;5052117;28;19938;-53
2023/07/02 03:17:56;;;;;;;;;;;20.40;66.30;;;;;;5059947;28;20011;-52
2023/07/02 03:20:21;;;;;;;;;;;20.50;66.10;;;;;;5059870;28;20353;-52
2023/07/02 03:22:47;;;;;;;;;;;20.50;66.20;;;;;;5060314;28;19919;-53
2023/07/02 03:25:12;;;;;;;;;;;20.40;66.30;;;;;;5068553;28;20025;-55
2023/07/02 03:27:38;;;;;;;;;;;20.40;66.30;;;;;;5051741;28;19913;-55
2023/07/02 03:30:04;;;;;;;;;;;20.40;66.10;;;;;;5052009;28;19948;-55
2023/07/02 03:32:29;;;;;;;;;;;20.40;65.90;;;;;;5051539;28;20380;-55
2023/07/02 03:34:54;;;;;;;;;;;20.40;65.90;;;;;;5056609;28;20259;-54
2023/07/02 03:37:20;;;;;;;;;;;20.50;65.70;;;;;;5052669;28;19920;-55
2023/07/02 03:39:45;;;;;;;;;;;20.50;65.70;;;;;;5051405;28;19923;-55
2023/07/02 03:42:11;;;;;;;;;;;20.40;65.60;;;;;;5064332;28;20005;-55
2023/07/02 03:44:36;;;;;;;;;;;20.40;65.60;;;;;;5051252;28;19917;-54
2023/07/02 03:47:02;;;;;;;;;;;20.40;65.60;;;;;;5053788;28;19916;-54
2023/07/02 03:49:27;;;;;;;;;;;20.40;65.60;;;;;;5064697;28;19916;-55
2023/07/02 03:51:53;;;;;;;;;;;20.40;65.50;;;;;;5054933;28;20281;-55
2023/07/02 03:54:18;;;;;;;;;;;20.40;65.20;;;;;;5055006;28;20300;-55
2023/07/02 03:56:43;;;;;;;;;;;20.40;65.10;;;;;;5052366;28;19917;-55
2023/07/02 03:59:09;;;;;;;;;;;20.40;65.00;;;;;;5051598;28;19909;-55
2023/07/02 04:01:34;;;;;;;;;;;20.40;64.70;;;;;;5064566;28;19912;-55
2023/07/02 04:04:00;;;;;;;;;;;20.40;64.70;;;;;;5053576;28;19917;-55
2023/07/02 04:06:25;;;;;;;;;;;20.40;64.80;;;;;;5052303;28;19920;-55
2023/07/02 04:08:51;;;;;;;;;;;20.40;64.70;;;;;;5058793;28;19913;-55
2023/07/02 04:11:16;;;;;;;;;;;20.40;64.50;;;;;;5064066;28;19951;-53
2023/07/02 04:13:41;;;;;;;;;;;20.30;64.50;;;;;;5061219;28;19920;-53
2023/07/02 04:16:07;;;;;;;;;;;20.30;64.50;;;;;;5063140;28;19919;-53
2023/07/02 04:18:32;;;;;;;;;;;20.30;64.40;;;;;;5054589;28;20270;-54
2023/07/02 04:20:58;;;;;;;;;;;20.30;65.20;;;;;;5051117;28;20047;-56
2023/07/02 04:23:24;;;;;;;;;;;20.30;64.20;;;;;;5053358;28;19913;-53
2023/07/02 04:25:49;;;;;;;;;;;20.30;64.10;;;;;;5055817;28;19924;-53
2023/07/02 04:28:15;;;;;;;;;;;20.30;64.10;;;;;;5057465;28;19917;-53
2023/07/02 04:30:42;;;;;;;;;;;20.30;63.90;;;;;;5057582;28;19919;-54
2023/07/02 04:33:07;;;;;;;;;;;20.20;64.20;;;;;;5065643;28;19978;-54
2023/07/02 04:35:34;;;;;;;;;;;20.20;64.10;;;;;;5058952;28;20317;-54
2023/07/02 04:38:00;;;;;;;;;;;20.20;64.10;;;;;;5063825;28;20395;-54
2023/07/02 04:40:25;;;;;;;;;;;20.20;63.90;;;;;;5059591;28;20030;-54
2023/07/02 04:42:57;;;;;;;;;;;20.20;63.70;;;;;;5074721;28;20364;-54
2023/07/02 04:45:26;;;;;;;;;;;20.20;63.70;;;;;;5062100;28;20381;-54
2023/07/02 04:47:51;;;;;;;;;;;20.20;63.50;;;;;;5056055;28;19924;-54
2023/07/02 04:50:17;;;;;;;;;;;20.20;63.60;;;;;;5055200;28;19916;-54
2023/07/02 04:52:43;;;;;;;;;;;20.20;63.30;;;;;;5061102;28;19914;-54
2023/07/02 04:55:08;;;;;;;;;;;20.20;63.20;;;;;;5057403;28;19936;-54
2023/07/02 04:57:34;;;;;;;;;;;20.30;63.20;;;;;;5054718;28;19934;-54
2023/07/02 04:59:59;;;;;;;;;;;20.30;63.00;;;;;;5057795;28;19913;-53
2023/07/02 05:02:24;;;;;;;;;;;20.30;63.10;;;;;;5055743;28;20016;-54
2023/07/02 05:04:50;;;;;;;;;;;20.30;62.90;;;;;;5054204;28;19916;-54
2023/07/02 05:07:16;;;;;;;;;;;20.30;62.90;;;;;;5056736;28;19920;-52
2023/07/02 05:09:41;;;;;;;;;;;20.30;62.70;;;;;;5059474;28;20008;-54
2023/07/02 05:12:07;;;;;;;;;;;20.30;62.60;;;;;;5054687;28;20289;-54
2023/07/02 05:14:32;;;;;;;;;;;20.30;62.60;;;;;;5054439;28;19909;-54
2023/07/02 05:16:58;;;;;;;;;;;20.20;62.30;;;;;;5054170;28;19917;-54
2023/07/02 05:19:23;;;;;;;;;;;20.30;62.40;;;;;;5058808;28;19913;-54
2023/07/02 05:21:48;;;;;;;;;;;20.20;62.40;;;;;;5067350;28;19912;-54
2023/07/02 05:24:14;;;;;;;;;;;20.20;62.30;;;;;;5054774;28;19935;-54
2023/07/02 05:26:39;;;;;;;;;;;20.20;62.40;;;;;;5058126;28;19960;-54
2023/07/02 05:29:05;;;;;;;;;;;20.20;62.40;;;;;;5069678;28;19920;-54
2023/07/02 05:31:30;;;;;;;;;;;20.20;62.20;;;;;;5057231;28;20069;-54
2023/07/02 05:33:56;;;;;;;;;;;20.20;62.10;;;;;;5080812;28;19912;-54
2023/07/02 05:36:21;;;;;;;;;;;20.30;62.00;;;;;;5058841;28;20343;-54
2023/07/02 05:38:47;;;;;;;;;;;20.20;62.20;;;;;;5053126;28;19917;-53
2023/07/02 05:41:19;;;;;;;;;;;20.20;62.00;;;;;;5064599;28;19915;-54
2023/07/02 05:43:44;;;;;;;;;;;20.20;61.90;;;;;;5072311;28;20369;-54
2023/07/02 05:46:09;;;;;;;;;;;20.20;62.00;;;;;;5054965;28;19927;-54
2023/07/02 05:48:35;;;;;;;;;;;20.20;62.20;;;;;;5066467;28;19917;-54
2023/07/02 05:51:00;;;;;;;;;;;20.20;62.10;;;;;;5057181;28;19916;-54
2023/07/02 05:53:26;;;;;;;;;;;20.30;62.10;;;;;;5056672;28;19955;-55
2023/07/02 05:55:51;;;;;;;;;;;20.30;62.00;;;;;;5055507;28;19913;-54
2023/07/02 05:58:17;;;;;;;;;;;20.30;61.70;;;;;;5067261;28;20293;-53
2023/07/02 06:00:48;;;;;;;;;;;20.40;61.70;;;;;;5056478;28;20003;-53
2023/07/02 06:03:18;;;;;;;;;;;20.40;61.70;;;;;;5065992;28;20368;-54
2023/07/02 06:05:45;;;;;;;;;;;20.40;61.70;;;;;;5057970;28;19957;-53
2023/07/02 06:08:11;;;;;;;;;;;20.30;61.70;;;;;;5053856;28;19923;-54
2023/07/02 06:10:36;;;;;;;;;;;20.30;61.70;;;;;;5057723;28;20296;-53
2023/07/02 06:13:02;;;;;;;;;;;20.30;61.70;;;;;;5058620;28;19921;-53
2023/07/02 06:15:27;;;;;;;;;;;20.30;61.60;;;;;;5059317;28;19948;-53
2023/07/02 06:17:53;;;;;;;;;;;20.30;61.60;;;;;;5056533;28;19917;-54
2023/07/02 06:20:18;;;;;;;;;;;20.40;61.40;;;;;;5059079;28;19913;-54
2023/07/02 06:22:43;;;;;;;;;;;20.40;61.50;;;;;;5062521;28;20380;-53
2023/07/02 06:25:09;;;;;;;;;;;20.40;61.40;;;;;;5055672;28;20262;-53
2023/07/02 06:27:34;;;;;;;;;;;20.40;61.30;;;;;;5059048;28;20021;-53
2023/07/02 06:30:00;;;;;;;;;;;20.40;61.40;;;;;;5063945;28;19920;-53
2023/07/02 06:32:25;;;;;;;;;;;20.40;61.40;;;;;;5061874;28;19917;-54
2023/07/02 06:34:51;;;;;;;;;;;20.40;61.20;;;;;;5054735;28;19941;-54
2023/07/02 06:37:16;;;;;;;;;;;20.40;61.20;;;;;;5056118;28;19925;-53
2023/07/02 06:39:42;;;;;;;;;;;20.40;61.30;;;;;;5057553;28;19948;-53
2023/07/02 06:42:07;;;;;;;;;;;20.40;61.10;;;;;;5058269;28;19920;-53
2023/07/02 06:44:33;;;;;;;;;;;20.40;61.20;;;;;;5064922;28;19973;-54
2023/07/02 06:46:58;;;;;;;;;;;20.40;61.20;;;;;;5049649;28;20363;-54
2023/07/02 06:49:24;;;;;;;;;;;20.30;61.80;;;;;;5051671;28;19920;-54
2023/07/02 06:51:49;;;;;;;;;;;20.30;61.10;;;;;;5055394;28;19919;-54
2023/07/02 06:54:14;;;;;;;;;;;20.40;61.10;;;;;;5051336;28;19917;-54
2023/07/02 06:56:40;;;;;;;;;;;20.40;61.10;;;;;;5053629;28;19975;-54
2023/07/02 06:59:05;;;;;;;;;;;20.30;60.90;;;;;;5054197;28;19928;-54
2023/07/02 07:01:31;;;;;;;;;;;20.40;61.00;;;;;;5054068;28;19913;-54
2023/07/02 07:03:56;;;;;;;;;;;20.40;61.00;;;;;;5064346;28;20312;-54
2023/07/02 07:06:22;;;;;;;;;;;20.40;61.00;;;;;;5063634;28;20301;-54
2023/07/02 07:08:47;;;;;;;;;;;20.40;61.00;;;;;;5059515;28;19912;-55
2023/07/02 07:11:13;;;;;;;;;;;20.40;60.90;;;;;;5065765;28;20022;-54
2023/07/02 07:13:38;;;;;;;;;;;20.40;60.90;;;;;;5064491;28;20380;-54
2023/07/02 07:16:04;;;;;;;;;;;20.40;60.90;;;;;;5054955;28;20373;-53
2023/07/02 07:18:29;;;;;;;;;;;20.40;60.80;;;;;;5059630;28;20007;-54
2023/07/02 07:20:55;;;;;;;;;;;20.40;60.90;;;;;;5055156;28;20377;-54
2023/07/02 07:23:21;;;;;;;;;;;20.40;60.80;;;;;;5054170;28;19916;-54
2023/07/02 07:25:46;;;;;;;;;;;20.40;60.80;;;;;;5051457;28;20466;-54
2023/07/02 07:28:15;;;;;;;;;;;20.40;60.70;;;;;;5053011;28;20328;-54
2023/07/02 07:30:44;;;;;;;;;;;20.40;60.60;;;;;;5053086;28;20020;-54
2023/07/02 07:33:09;;;;;;;;;;;20.40;60.40;;;;;;5060313;28;19936;-53
2023/07/02 07:35:34;;;;;;;;;;;20.40;60.40;;;;;;5058438;28;19928;-53
2023/07/02 07:38:00;;;;;;;;;;;20.40;60.30;;;;;;5067451;28;19916;-53
2023/07/02 07:40:25;;;;;;;;;;;20.40;60.30;;;;;;5053146;28;19973;-54
2023/07/02 07:42:51;;;;;;;;;;;20.50;60.40;;;;;;5057324;28;20456;-54
2023/07/02 07:45:16;;;;;;;;;;;20.50;60.30;;;;;;5051918;28;20308;-54
2023/07/02 07:47:42;;;;;;;;;;;20.50;60.30;;;;;;5058801;28;19974;-53
2023/07/02 07:50:10;;;;;;;;;;;20.50;60.30;;;;;;5055112;28;19909;-54
2023/07/02 07:52:38;;;;;;;;;;;20.50;60.10;;;;;;5063959;28;20054;-54
2023/07/02 07:55:04;;;;;;;;;;;20.50;60.00;;;;;;5056090;28;19928;-54
2023/07/02 07:57:30;;;;;;;;;;;20.50;59.80;;;;;;5054062;28;19912;-54
2023/07/02 07:59:55;;;;;;;;;;;20.50;59.30;;;;;;5055298;28;19913;-54
2023/07/02 08:02:22;;;;;;;;;;;20.50;59.10;;;;;;5058642;28;19922;-54
2023/07/02 08:04:48;;;;;;;;;;;20.50;58.80;;;;;;5055198;28;20007;-54
2023/07/02 08:07:13;;;;;;;;;;;20.50;58.70;;;;;;5051165;28;20023;-53
2023/07/02 08:09:39;;;;;;;;;;;20.50;58.30;;;;;;5058623;28;19983;-53
2023/07/02 08:12:04;;;;;;;;;;;20.50;58.10;;;;;;5056591;28;19923;-54
2023/07/02 08:14:30;;;;;;;;;;;20.50;57.90;;;;;;5057190;28;21276;-53
2023/07/02 08:16:55;;;;;;;;;;;20.50;57.80;;;;;;5050286;28;20221;-53
2023/07/02 08:19:21;;;;;;;;;;;20.50;57.60;;;;;;5050250;28;19967;-55
2023/07/02 08:21:47;;;;;;;;;;;20.50;57.30;;;;;;5057769;28;19917;-53
2023/07/02 08:24:13;;;;;;;;;;;20.60;56.90;;;;;;5052588;28;20396;-54
2023/07/02 08:26:39;;;;;;;;;;;20.60;57.00;;;;;;5063510;28;19924;-54
2023/07/02 08:29:04;;;;;;;;;;;20.60;56.70;;;;;;5057865;28;19913;-53
2023/07/02 08:31:30;;;;;;;;;;;20.60;56.40;;;;;;5050395;28;19913;-54
2023/07/02 08:33:55;;;;;;;;;;;20.60;56.40;;;;;;5052962;28;20278;-54
2023/07/02 08:36:20;;;;;;;;;;;20.60;56.10;;;;;;5053049;28;19920;-54
2023/07/02 08:38:46;;;;;;;;;;;20.60;56.10;;;;;;5064125;28;19909;-55
2023/07/02 08:41:11;;;;;;;;;;;20.60;55.10;;;;;;5063277;28;19913;-54
2023/07/02 08:43:37;;;;;;;;;;;20.60;54.70;;;;;;5054783;28;19916;-54
2023/07/02 08:46:02;;;;;;;;;;;20.50;54.20;;;;;;5054500;28;19921;-54
2023/07/02 08:48:29;;;;;;;;;;;20.60;53.60;;;;;;5054372;28;19943;-54
2023/07/02 08:50:57;;;;;;;;;;;20.60;53.00;;;;;;5051151;28;20266;-54
2023/07/02 08:53:29;;;;;;;;;;;20.60;53.00;;;;;;5050690;28;19966;-54
2023/07/02 08:55:55;;;;;;;;;;;20.60;52.90;;;;;;5057391;28;20419;-54
2023/07/02 08:58:21;;;;;;;;;;;20.60;52.40;;;;;;5050537;28;19977;-53
2023/07/02 09:01:06;;;;;;;;;;;20.60;52.60;;;;;;5052339;28;20030;-54
2023/07/02 09:03:32;;;;;;;;;;;20.60;52.20;;;;;;5057424;28;19961;-54
2023/07/02 09:05:57;;;;;;;;;;;20.70;52.00;;;;;;5059213;28;20498;-54
2023/07/02 09:08:24;;;;;;;;;;;20.70;51.60;;;;;;5055812;28;20383;-54
2023/07/02 09:10:49;;;;;;;;;;;20.70;51.30;;;;;;5060612;28;19927;-54
2023/07/02 09:13:15;;;;;;;;;;;20.70;51.30;;;;;;5063057;28;20396;-54
2023/07/02 09:15:40;;;;;;;;;;;20.70;51.10;;;;;;5057265;28;20304;-54
2023/07/02 09:18:19;;;;;;;;;;;20.70;51.10;;;;;;5057520;28;19916;-53
2023/07/02 09:20:44;;;;;;;;;;;20.70;51.10;;;;;;5061096;28;19956;-55
2023/07/02 09:23:10;;;;;;;;;;;20.70;51.10;;;;;;5055619;28;20403;-54
2023/07/02 09:25:38;;;;;;;;;;;20.70;51.40;;;;;;5053225;28;20443;-52
2023/07/02 09:28:13;;;;;;;;;;;20.70;51.60;;;;;;5056228;28;20147;-54
2023/07/02 09:30:48;;;;;;;;;;;20.70;51.80;;;;;;5053905;28;19986;-53
2023/07/02 09:33:13;;;;;;;;;;;20.70;51.90;;;;;;5068152;28;19919;-53
2023/07/02 09:35:39;;;;;;;;;;;20.70;52.30;;;;;;5058644;28;20028;-53
2023/07/02 09:38:05;;;;;;;;;;;20.60;52.60;;;;;;5052746;28;19917;-53
2023/07/02 09:40:31;;;;;;;;;;;20.70;53.00;;;;;;5066243;28;20369;-53
2023/07/02 09:42:56;;;;;;;;;;;20.70;52.90;;;;;;5054305;28;19916;-53
2023/07/02 09:45:21;;;;;;;;;;;20.70;53.40;;;;;;5059657;28;19923;-53
2023/07/02 09:47:47;;;;;;;;;;;20.70;53.70;;;;;;5058118;28;19948;-53
2023/07/02 09:50:13;;;;;;;;;;;20.70;53.80;;;;;;5054768;28;19913;-53
2023/07/02 09:52:38;;;;;;;;;;;20.70;53.80;;;;;;5055867;28;19920;-53
2023/07/02 09:55:04;;;;;;;;;;;20.80;54.00;;;;;;5052247;28;20054;-54
2023/07/02 09:57:31;;;;;;;;;;;20.80;54.20;;;;;;5054486;28;19935;-54
2023/07/02 09:59:56;;;;;;;;;;;20.80;54.10;;;;;;5061028;28;20288;-53
2023/07/02 10:02:22;;;;;;;;;;;20.80;54.00;;;;;;5057746;28;19921;-53
2023/07/02 10:04:50;;;;;;;;;;;20.80;53.80;;;;;;5062265;28;19917;-53
2023/07/02 10:07:25;;;;;;;;;;;20.80;53.60;;;;;;5053573;28;20371;-53
2023/07/02 10:09:51;;;;;;;;;;;20.80;53.50;;;;;;5052222;28;19916;-53
2023/07/02 10:12:26;;;;;;;;;;;20.80;53.10;;;;;;5060305;28;19928;-53
2023/07/02 10:14:52;;;;;;;;;;;20.90;53.10;;;;;;5057458;28;19916;-53
2023/07/02 10:17:24;;;;;;;;;;;20.90;52.60;;;;;;5051501;28;19923;-53
2023/07/02 10:19:53;;;;;;;;;;;20.90;52.50;;;;;;5056136;28;20003;-54
2023/07/02 10:22:18;;;;;;;;;;;20.90;52.30;;;;;;5052839;28;19966;-54
2023/07/02 10:24:53;;;;;;;;;;;20.90;52.30;;;;;;5053041;28;19917;-53
2023/07/02 10:27:19;;;;;;;;;;;20.90;52.50;;;;;;5053278;28;19916;-54
2023/07/02 10:29:53;;;;;;;;;;;20.80;52.40;;;;;;5059616;28;19935;-53
2023/07/02 10:32:31;;;;;;;;;;;20.90;52.80;;;;;;5053440;28;19982;-52
2023/07/02 10:34:58;;;;;;;;;;;20.80;52.90;;;;;;5052533;28;19917;-53
2023/07/02 10:37:24;;;;;;;;;;;20.80;52.80;;;;;;5053177;28;19920;-52
2023/07/02 10:39:49;;;;;;;;;;;20.80;52.80;;;;;;5052292;28;19919;-53
2023/07/02 10:42:15;;;;;;;;;;;20.80;52.60;;;;;;5059012;28;19921;-53
2023/07/02 10:44:50;;;;;;;;;;;20.80;52.60;;;;;;5056454;28;20011;-53
2023/07/02 10:47:15;;;;;;;;;;;20.80;52.50;;;;;;5064414;28;20066;-53
2023/07/02 10:49:41;;;;;;;;;;;20.80;52.50;;;;;;5063420;28;20011;-54
2023/07/02 10:52:09;;;;;;;;;;;20.80;52.60;;;;;;5045405;28;19913;-54
2023/07/02 10:54:39;;;;;;;;;;;20.80;52.80;;;;;;5052753;28;20289;-53
2023/07/02 10:57:05;;;;;;;;;;;20.80;53.10;;;;;;5069404;28;19909;-53
2023/07/02 10:59:30;;;;;;;;;;;20.80;53.30;;;;;;5052139;28;19995;-53
2023/07/02 11:01:56;;;;;;;;;;;20.80;53.40;;;;;;5056376;28;20381;-53
2023/07/02 11:04:21;;;;;;;;;;;20.80;53.70;;;;;;5052956;28;20256;-53
2023/07/02 11:06:47;;;;;;;;;;;20.80;53.80;;;;;;5052295;28;19924;-53
2023/07/02 11:09:16;;;;;;;;;;;20.80;54.00;;;;;;5052115;28;20369;-53
2023/07/02 11:11:55;;;;;;;;;;;20.80;53.80;;;;;;5052812;28;19908;-53
2023/07/02 11:14:30;;;;;;;;;;;20.80;53.70;;;;;;5052687;28;19916;-53
2023/07/02 11:16:55;;;;;;;;;;;20.80;53.50;;;;;;5052745;28;19909;-54
2023/07/02 11:19:21;;;;;;;;;;;20.90;53.50;;;;;;5057733;28;19931;-53
2023/07/02 11:21:53;;;;;;;;;;;20.90;53.40;;;;;;5054086;28;19917;-54
2023/07/02 11:24:28;;;;;;;;;;;21.00;53.30;;;;;;5072371;28;19914;-54
2023/07/02 11:26:54;;;;;;;;;;;21.00;53.20;;;;;;5072087;28;19921;-53
2023/07/02 11:29:19;;;;;;;;;;;21.00;53.00;;;;;;5072376;28;19913;-53
2023/07/02 11:31:45;;;;;;;;;;;21.00;52.70;;;;;;5064886;28;19920;-54
2023/07/02 11:34:17;;;;;;;;;;;21.00;52.70;;;;;;5054718;28;20351;-53
2023/07/02 11:36:43;;;;;;;;;;;21.00;52.60;;;;;;5068800;28;19978;-54
2023/07/02 11:39:08;;;;;;;;;;;20.90;52.40;;;;;;5050670;28;20015;-53
2023/07/02 11:41:40;;;;;;;;;;;21.00;52.50;;;;;;5052666;28;19916;-54
2023/07/02 11:44:06;;;;;;;;;;;21.00;52.20;;;;;;5052106;28;19966;-54
2023/07/02 11:46:32;;;;;;;;;;;21.00;51.80;;;;;;5050527;28;19925;-53
2023/07/02 11:48:57;;;;;;;;;;;21.10;51.60;;;;;;5057814;28;20376;-53
2023/07/02 11:51:22;;;;;;;;;;;21.10;51.20;;;;;;5055329;28;19974;-54
2023/07/02 11:53:48;;;;;;;;;;;21.20;50.80;;;;;;5050380;28;20007;-54
2023/07/02 11:56:13;;;;;;;;;;;21.20;50.60;;;;;;5068832;28;19928;-53
2023/07/02 11:58:39;;;;;;;;;;;21.20;50.10;;;;;;5070720;28;20388;-53
2023/07/02 12:01:05;;;;;;;;;;;21.20;49.50;;;;;;5067241;28;19913;-53
2023/07/02 12:03:30;;;;;;;;;;;21.10;49.60;;;;;;5071283;28;20056;-53
2023/07/02 12:05:56;;;;;;;;;;;21.10;49.30;;;;;;5070361;28;19924;-53
2023/07/02 12:08:21;;;;;;;;;;;21.00;49.50;;;;;;5071517;28;19909;-53
2023/07/02 12:10:47;;;;;;;;;;;21.00;49.20;;;;;;5061894;28;19935;-54
2023/07/02 12:13:12;;;;;;;;;;;21.00;49.20;;;;;;5061748;28;19919;-53
2023/07/02 12:15:38;;;;;;;;;;;21.00;49.30;;;;;;5052395;28;19917;-53
2023/07/02 12:18:03;;;;;;;;;;;21.10;49.50;;;;;;5052731;28;19996;-53
2023/07/02 12:20:29;;;;;;;;;;;21.10;49.60;;;;;;5071099;28;19908;-53
2023/07/02 12:22:54;;;;;;;;;;;21.10;49.50;;;;;;5070840;28;19913;-53
2023/07/02 12:25:19;;;;;;;;;;;21.10;49.50;;;;;;5071474;28;20378;-54
2023/07/02 12:27:45;;;;;;;;;;;21.10;50.00;;;;;;5071205;28;19916;-53
2023/07/02 12:30:10;;;;;;;;;;;21.20;50.00;;;;;;5070049;28;19962;-54
2023/07/02 12:32:37;;;;;;;;;;;21.30;49.80;;;;;;5070757;28;20003;-54
2023/07/02 12:35:03;;;;;;;;;;;21.30;49.30;;;;;;5060402;28;19913;-53
2023/07/02 12:37:28;;;;;;;;;;;21.20;49.40;;;;;;5051364;28;19909;-53
2023/07/02 12:39:54;;;;;;;;;;;21.30;49.50;;;;;;5051798;28;20019;-54
2023/07/02 12:42:19;;;;;;;;;;;21.20;49.50;;;;;;5051626;28;19962;-54
2023/07/02 12:44:45;;;;;;;;;;;21.20;49.40;;;;;;5051842;28;19913;-54
2023/07/02 12:47:11;;;;;;;;;;;21.20;49.50;;;;;;5069789;28;19924;-54
2023/07/02 12:49:36;;;;;;;;;;;21.30;49.70;;;;;;5075237;28;19918;-53
2023/07/02 12:52:02;;;;;;;;;;;21.30;49.40;;;;;;5056197;28;20357;-53
2023/07/02 12:54:28;;;;;;;;;;;21.30;49.40;;;;;;5060512;28;19917;-54
2023/07/02 12:56:53;;;;;;;;;;;21.30;49.30;;;;;;5055211;28;19983;-53
2023/07/02 12:59:19;;;;;;;;;;;21.30;49.30;;;;;;5055200;28;19909;-53
2023/07/02 13:01:44;;;;;;;;;;;21.30;49.40;;;;;;5055312;28;19916;-54
2023/07/02 13:04:09;;;;;;;;;;;21.20;49.10;;;;;;5074981;28;20007;-54
2023/07/02 13:06:39;;;;;;;;;;;21.20;49.00;;;;;;5068650;28;19999;-54
2023/07/02 13:09:06;;;;;;;;;;;21.30;49.10;;;;;;5053918;28;19979;-54
2023/07/02 13:11:32;;;;;;;;;;;21.30;49.00;;;;;;5054504;28;20369;-54
2023/07/02 13:13:57;;;;;;;;;;;21.20;49.00;;;;;;5055905;28;19921;-53
2023/07/02 13:16:23;;;;;;;;;;;21.20;49.00;;;;;;5061193;28;19913;-54
2023/07/02 13:18:49;;;;;;;;;;;21.20;49.00;;;;;;5054849;28;19992;-54
2023/07/02 13:21:14;;;;;;;;;;;21.30;49.30;;;;;;5054449;28;19963;-54
2023/07/02 13:23:40;;;;;;;;;;;21.40;49.30;;;;;;5054340;28;19913;-54
2023/07/02 13:26:05;;;;;;;;;;;21.40;49.20;;;;;;5059226;28;19928;-54
2023/07/02 13:28:31;;;;;;;;;;;21.40;48.80;;;;;;5066806;28;19959;-53
2023/07/02 13:30:56;;;;;;;;;;;21.40;48.90;;;;;;5055452;28;19920;-54
2023/07/02 13:33:22;;;;;;;;;;;21.40;48.80;;;;;;5050051;28;20388;-54
2023/07/02 13:35:47;;;;;;;;;;;21.40;48.90;;;;;;5054038;28;19924;-54
2023/07/02 13:38:13;;;;;;;;;;;21.40;48.80;;;;;;5059548;28;19908;-54
2023/07/02 13:40:38;;;;;;;;;;;21.30;48.60;;;;;;5066255;28;19936;-53
2023/07/02 13:43:04;;;;;;;;;;;21.30;48.50;;;;;;5054256;28;19932;-54
2023/07/02 13:45:29;;;;;;;;;;;21.40;48.40;;;;;;5064719;28;20395;-53
2023/07/02 13:47:55;;;;;;;;;;;21.40;48.50;;;;;;5052936;28;19958;-54
2023/07/02 13:50:20;;;;;;;;;;;21.50;48.30;;;;;;5054312;28;20463;-54
2023/07/02 13:52:46;;;;;;;;;;;21.40;48.10;;;;;;5063838;28;20252;-53
2023/07/02 13:55:12;;;;;;;;;;;21.40;48.20;;;;;;5073966;28;19913;-54
2023/07/02 13:57:37;;;;;;;;;;;21.40;48.30;;;;;;5074037;28;19908;-54
2023/07/02 14:00:04;;;;;;;;;;;21.40;48.40;;;;;;5061817;28;19913;-54
2023/07/02 14:02:31;;;;;;;;;;;21.40;48.00;;;;;;5052379;28;20016;-54
2023/07/02 14:04:57;;;;;;;;;;;21.40;48.00;;;;;;5059388;28;19917;-54
2023/07/02 14:07:23;;;;;;;;;;;21.40;48.10;;;;;;5071459;28;19969;-54
2023/07/02 14:09:48;;;;;;;;;;;21.40;48.20;;;;;;5069395;28;20265;-54